createdAt,value
2019-03-10T00:01:38.938Z,86.12
2019-03-10T00:04:05.568Z,87.05
2019-03-10T00:06:32.112Z,86.85
2019-03-10T00:08:58.547Z,88.17
2019-03-10T00:11:24.981Z,88.48
2019-03-10T00:13:51.517Z,87.06
2019-03-10T00:16:18.155Z,87.08
2019-03-10T00:18:44.595Z,87.47
2019-03-10T00:21:11.125Z,87.79
2019-03-10T00:23:37.560Z,88.03
2019-03-10T00:26:04.225Z,87.44
2019-03-10T00:28:30.744Z,86.18
2019-03-10T00:30:57.167Z,86.47
2019-03-10T00:33:23.704Z,87.75
2019-03-10T00:35:50.162Z,88.04
2019-03-10T00:38:16.675Z,88.93
2019-03-10T00:41:01.310Z,88.93
2019-03-10T00:43:52.853Z,89.04
2019-03-10T00:46:58.198Z,89.04
2019-03-10T00:49:57.504Z,89.30
2019-03-10T00:52:40.017Z,88.40
2019-03-10T00:55:06.551Z,87.88
2019-03-10T00:57:33.190Z,88.86
2019-03-10T01:00:00.890Z,88.86
2019-03-10T01:02:27.751Z,88.48
2019-03-10T01:04:55.336Z,88.39
2019-03-10T01:07:22.914Z,88.35
2019-03-10T01:09:50.335Z,88.79
2019-03-10T01:12:18.075Z,88.62
2019-03-10T01:14:45.651Z,87.85
2019-03-10T01:17:12.541Z,87.35
2019-03-10T01:19:39.185Z,87.35
2019-03-10T01:22:05.721Z,87.89
2019-03-10T01:24:32.250Z,89.51
2019-03-10T01:26:58.686Z,89.30
2019-03-10T01:29:25.119Z,89.12
2019-03-10T01:32:14.824Z,90.46
2019-03-10T01:34:54.132Z,90.35
2019-03-10T01:37:20.668Z,90.45
2019-03-10T01:39:47.104Z,90.17
2019-03-10T01:42:13.535Z,90.74
2019-03-10T01:44:40.071Z,89.20
2019-03-10T01:47:06.508Z,89.14
2019-03-10T01:49:32.941Z,89.76
2019-03-10T01:51:59.580Z,89.81
2019-03-10T01:54:26.225Z,90.34
2019-03-10T01:56:52.858Z,89.62
2019-03-10T01:59:19.289Z,88.98
2019-03-10T02:01:45.826Z,88.22
2019-03-10T02:04:12.362Z,88.22
2019-03-10T02:06:38.905Z,89.71
2019-03-10T02:09:05.815Z,90.48
2019-03-10T02:11:32.277Z,90.40
2019-03-10T02:13:58.711Z,90.53
2019-03-10T02:16:25.244Z,89.63
2019-03-10T02:18:51.676Z,88.21
2019-03-10T02:21:18.110Z,90.41
2019-03-10T02:23:44.548Z,90.81
2019-03-10T02:26:11.419Z,90.44
2019-03-10T02:28:37.932Z,91.13
2019-03-10T02:31:04.462Z,90.76
2019-03-10T02:33:30.891Z,90.98
2019-03-10T02:35:57.434Z,90.32
2019-03-10T02:38:23.974Z,90.17
2019-03-10T02:40:50.509Z,89.83
2019-03-10T02:43:17.036Z,89.13
2019-03-10T02:45:43.573Z,89.83
2019-03-10T02:48:10.015Z,88.96
2019-03-10T02:50:36.527Z,89.62
2019-03-10T02:53:03.283Z,89.00
2019-03-10T02:55:30.023Z,89.87
2019-03-10T02:57:56.559Z,89.06
2019-03-10T03:00:23.094Z,89.54
2019-03-10T03:02:49.532Z,90.30
2019-03-10T03:05:16.066Z,90.78
2019-03-10T03:07:42.498Z,90.28
2019-03-10T03:10:11.919Z,89.35
2019-03-10T03:12:38.439Z,90.43
2019-03-10T03:15:06.705Z,89.55
2019-03-10T03:17:33.146Z,88.59
2019-03-10T03:19:59.581Z,89.90
2019-03-10T03:22:26.118Z,89.12
2019-03-10T03:24:52.652Z,89.13
2019-03-10T03:27:19.087Z,89.26
2019-03-10T03:29:45.726Z,89.44
2019-03-10T03:32:12.270Z,88.77
2019-03-10T03:34:38.811Z,88.77
2019-03-10T03:37:05.776Z,88.70
2019-03-10T03:39:32.893Z,87.59
2019-03-10T03:41:59.433Z,87.14
2019-03-10T03:44:25.895Z,87.85
2019-03-10T03:46:52.499Z,88.40
2019-03-10T03:49:18.955Z,88.40
2019-03-10T03:51:45.370Z,87.61
2019-03-10T03:54:11.906Z,88.34
2019-03-10T03:56:38.545Z,87.38
2019-03-10T03:59:05.093Z,89.65
2019-03-10T04:01:36.060Z,89.65
2019-03-10T04:04:02.552Z,88.92
2019-03-10T04:06:29.087Z,88.58
2019-03-10T04:08:55.627Z,87.78
2019-03-10T04:11:22.174Z,87.48
2019-03-10T04:13:48.595Z,88.05
2019-03-10T04:16:15.146Z,87.99
2019-03-10T04:18:41.665Z,87.37
2019-03-10T04:21:08.221Z,87.85
2019-03-10T04:23:34.738Z,89.34
2019-03-10T04:26:01.273Z,89.34
2019-03-10T04:28:27.808Z,89.12
2019-03-10T04:30:54.550Z,89.12
2019-03-10T04:33:21.086Z,89.33
2019-03-10T04:35:47.622Z,89.33
2019-03-10T04:38:14.059Z,88.83
2019-03-10T04:40:40.487Z,90.32
2019-03-10T04:43:06.922Z,89.54
2019-03-10T04:45:33.460Z,89.40
2019-03-10T04:47:59.996Z,89.77
2019-03-10T04:50:26.427Z,88.71
2019-03-10T04:52:53.067Z,89.18
2019-03-10T04:55:40.695Z,88.44
2019-03-10T04:58:12.210Z,88.89
2019-03-10T05:00:40.733Z,89.67
2019-03-10T05:03:07.266Z,89.34
2019-03-10T05:05:33.866Z,89.34
2019-03-10T05:08:00.443Z,88.90
2019-03-10T05:10:26.980Z,90.04
2019-03-10T05:12:53.627Z,90.04
2019-03-10T05:15:20.151Z,89.66
2019-03-10T05:17:47.000Z,90.21
2019-03-10T05:20:13.428Z,90.21
2019-03-10T05:22:39.862Z,89.56
2019-03-10T05:25:12.336Z,89.05
2019-03-10T05:27:38.873Z,89.33
2019-03-10T05:30:07.997Z,89.33
2019-03-10T05:32:34.607Z,89.87
2019-03-10T05:35:01.145Z,89.87
2019-03-10T05:37:27.703Z,89.76
2019-03-10T05:39:54.215Z,89.76
2019-03-10T05:42:20.750Z,89.96
2019-03-10T05:44:47.288Z,90.04
2019-03-10T05:47:13.823Z,90.37
2019-03-10T05:49:40.262Z,88.79
2019-03-10T05:52:06.675Z,89.45
2019-03-10T05:54:33.327Z,89.53
2019-03-10T05:56:59.864Z,89.12
2019-03-10T05:59:26.399Z,89.24
2019-03-10T06:01:52.936Z,89.24
2019-03-10T06:04:19.822Z,88.77
2019-03-10T06:06:46.416Z,90.02
2019-03-10T06:09:12.842Z,88.01
2019-03-10T06:11:39.284Z,88.81
2019-03-10T06:14:05.826Z,89.21
2019-03-10T06:16:32.357Z,88.87
2019-03-10T06:18:58.891Z,88.83
2019-03-10T06:21:25.327Z,89.22
2019-03-10T06:23:51.861Z,89.13
2019-03-10T06:26:18.401Z,89.13
2019-03-10T06:28:44.934Z,89.25
2019-03-10T06:31:11.367Z,89.63
2019-03-10T06:33:38.210Z,89.11
2019-03-10T06:36:04.675Z,89.28
2019-03-10T06:38:31.283Z,89.28
2019-03-10T06:40:57.932Z,89.37
2019-03-10T06:43:25.073Z,88.68
2019-03-10T06:45:51.712Z,89.38
2019-03-10T06:48:18.555Z,90.40
2019-03-10T06:50:45.097Z,90.40
2019-03-10T06:53:11.726Z,90.12
2019-03-10T06:55:38.365Z,89.28
2019-03-10T06:58:05.002Z,89.17
2019-03-10T07:00:31.743Z,89.09
2019-03-10T07:02:58.286Z,89.52
2019-03-10T07:05:27.862Z,89.38
2019-03-10T07:07:54.746Z,88.91
2019-03-10T07:10:21.593Z,88.90
2019-03-10T07:12:49.338Z,89.07
2019-03-10T07:15:15.875Z,90.16
2019-03-10T07:17:42.411Z,89.22
2019-03-10T07:20:15.910Z,89.69
2019-03-10T07:22:42.394Z,90.52
2019-03-10T07:25:09.289Z,90.43
2019-03-10T07:27:43.555Z,90.38
2019-03-10T07:30:28.678Z,90.02
2019-03-10T07:32:58.133Z,89.97
2019-03-10T07:35:35.693Z,90.17
2019-03-10T07:38:20.545Z,89.80
2019-03-10T07:40:57.832Z,89.83
2019-03-10T07:43:32.270Z,89.46
2019-03-10T07:46:06.845Z,89.08
2019-03-10T07:48:37.965Z,89.69
2019-03-10T07:51:09.158Z,89.69
2019-03-10T07:53:37.461Z,89.09
2019-03-10T07:56:08.666Z,88.76
2019-03-10T07:58:43.485Z,88.16
2019-03-10T08:01:11.768Z,88.49
2019-03-10T08:03:40.383Z,88.45
2019-03-10T08:06:11.628Z,88.13
2019-03-10T08:08:42.618Z,88.04
2019-03-10T08:11:10.946Z,87.61
2019-03-10T08:13:56.375Z,87.69
2019-03-10T08:16:26.036Z,87.52
2019-03-10T08:19:03.292Z,87.19
2019-03-10T08:21:50.031Z,87.11
2019-03-10T08:24:33.361Z,87.12
2019-03-10T08:27:04.621Z,87.56
2019-03-10T08:29:50.604Z,86.96
2019-03-10T08:32:31.626Z,86.10
2019-03-10T08:35:02.821Z,85.79
2019-03-10T08:37:47.585Z,86.16
2019-03-10T08:40:32.555Z,86.14
2019-03-10T08:43:03.843Z,85.40
2019-03-10T08:45:35.146Z,85.44
2019-03-10T08:48:06.356Z,86.13
2019-03-10T08:50:34.670Z,85.87
2019-03-10T08:53:02.950Z,86.17
2019-03-10T08:55:33.991Z,86.14
2019-03-10T08:58:08.075Z,85.58
2019-03-10T09:00:48.157Z,85.25
2019-03-10T09:03:19.444Z,84.50
2019-03-10T09:05:56.688Z,84.34
2019-03-10T09:08:27.972Z,84.22
2019-03-10T09:11:13.136Z,85.00
2019-03-10T09:13:56.750Z,84.90
2019-03-10T09:16:26.046Z,84.72
2019-03-10T09:18:54.324Z,84.05
2019-03-10T09:21:31.919Z,83.43
2019-03-10T09:24:17.096Z,83.65
2019-03-10T09:26:48.339Z,83.39
2019-03-10T09:29:22.759Z,83.00
2019-03-10T09:31:51.037Z,82.53
2019-03-10T09:34:22.080Z,83.11
2019-03-10T09:36:59.467Z,83.25
2019-03-10T09:39:27.847Z,82.64
2019-03-10T09:42:08.483Z,82.59
2019-03-10T09:44:48.876Z,82.30
2019-03-10T09:47:32.415Z,81.88
2019-03-10T09:50:00.683Z,83.59
2019-03-10T09:52:28.977Z,83.34
2019-03-10T09:54:57.443Z,82.96
2019-03-10T09:57:38.011Z,83.28
2019-03-10T10:00:12.929Z,82.41
2019-03-10T10:02:41.423Z,83.12
2019-03-10T10:05:18.915Z,83.05
2019-03-10T10:07:47.193Z,81.80
2019-03-10T10:10:15.675Z,83.04
2019-03-10T10:12:56.033Z,82.80
2019-03-10T10:15:24.620Z,82.62
2019-03-10T10:17:59.091Z,82.17
2019-03-10T10:20:27.419Z,82.28
2019-03-10T10:23:10.882Z,82.74
2019-03-10T10:25:45.069Z,81.96
2019-03-10T10:28:13.343Z,81.68
2019-03-10T10:30:41.830Z,81.32
2019-03-10T10:33:12.049Z,81.73
2019-03-10T10:35:40.329Z,81.64
2019-03-10T10:38:18.580Z,80.81
2019-03-10T10:41:01.565Z,80.96
2019-03-10T10:43:46.425Z,81.36
2019-03-10T10:46:17.468Z,81.44
2019-03-10T10:48:51.701Z,80.53
2019-03-10T10:51:22.630Z,81.52
2019-03-10T10:53:50.905Z,81.75
2019-03-10T10:56:25.227Z,81.31
2019-03-10T10:58:53.495Z,81.27
2019-03-10T11:01:21.767Z,80.70
2019-03-10T11:04:02.234Z,81.18
2019-03-10T11:06:47.304Z,80.15
2019-03-10T11:09:32.070Z,79.56
2019-03-10T11:12:03.428Z,79.35
2019-03-10T11:14:34.367Z,77.90
2019-03-10T11:17:02.720Z,77.07
2019-03-10T11:19:47.495Z,76.79
2019-03-10T11:22:15.772Z,76.62
2019-03-10T11:24:59.416Z,74.67
2019-03-10T11:27:27.685Z,74.43
2019-03-10T11:30:08.057Z,73.46
2019-03-10T11:32:42.257Z,72.44
2019-03-10T11:35:10.745Z,72.81
2019-03-10T11:37:48.009Z,73.61
2019-03-10T11:40:33.205Z,72.80
2019-03-10T11:43:04.656Z,71.65
2019-03-10T11:45:33.035Z,72.88
2019-03-10T11:48:01.355Z,71.48
2019-03-10T11:50:29.692Z,70.60
2019-03-10T11:53:00.835Z,70.06
2019-03-10T11:55:29.203Z,71.12
2019-03-10T11:58:06.439Z,70.79
2019-03-10T12:00:49.634Z,70.61
2019-03-10T12:03:24.090Z,71.18
2019-03-10T12:05:52.387Z,72.29
2019-03-10T12:08:23.658Z,73.22
2019-03-10T12:10:50.213Z,72.34
2019-03-10T12:13:16.744Z,72.53
2019-03-10T12:15:43.286Z,71.35
2019-03-10T12:18:09.713Z,72.12
2019-03-10T12:20:36.250Z,72.42
2019-03-10T12:23:03.007Z,71.80
2019-03-10T12:25:29.536Z,71.52
2019-03-10T12:27:55.959Z,71.38
2019-03-10T12:30:22.700Z,68.69
2019-03-10T12:32:49.163Z,67.46
2019-03-10T12:35:15.772Z,66.38
2019-03-10T12:37:42.212Z,66.92
2019-03-10T12:40:10.132Z,68.36
2019-03-10T12:42:37.022Z,68.54
2019-03-10T12:45:05.782Z,69.14
2019-03-10T12:47:32.241Z,68.96
2019-03-10T12:49:58.674Z,70.25
2019-03-10T12:52:25.117Z,68.66
2019-03-10T12:54:51.561Z,68.84
2019-03-10T12:57:18.387Z,70.21
2019-03-10T12:59:44.820Z,69.01
2019-03-10T13:02:11.255Z,70.35
2019-03-10T13:04:37.803Z,70.67
2019-03-10T13:07:04.325Z,72.25
2019-03-10T13:09:30.760Z,73.20
2019-03-10T13:11:57.295Z,72.27
2019-03-10T13:14:23.933Z,73.40
2019-03-10T13:16:50.366Z,74.77
2019-03-10T13:19:16.804Z,73.81
2019-03-10T13:21:43.333Z,72.96
2019-03-10T13:24:09.876Z,74.03
2019-03-10T13:26:36.620Z,73.89
2019-03-10T13:29:03.135Z,73.20
2019-03-10T13:31:29.787Z,73.20
2019-03-10T13:33:56.323Z,73.21
2019-03-10T13:36:22.888Z,71.25
2019-03-10T13:38:49.396Z,71.62
2019-03-10T13:41:15.828Z,72.18
2019-03-10T13:43:42.264Z,71.72
2019-03-10T13:46:08.798Z,71.76
2019-03-10T13:48:35.232Z,72.15
2019-03-10T13:51:01.677Z,73.64
2019-03-10T13:53:28.113Z,73.88
2019-03-10T13:55:54.740Z,73.74
2019-03-10T13:58:21.205Z,73.07
2019-03-10T14:00:47.912Z,73.44
2019-03-10T14:03:14.446Z,71.93
2019-03-10T14:05:40.983Z,72.45
2019-03-10T14:08:07.622Z,71.71
2019-03-10T14:10:34.055Z,71.84
2019-03-10T14:13:00.796Z,71.33
2019-03-10T14:15:27.723Z,71.00
2019-03-10T14:17:54.175Z,70.89
2019-03-10T14:20:20.711Z,71.26
2019-03-10T14:22:47.145Z,70.72
2019-03-10T14:25:15.626Z,69.74
2019-03-10T14:27:42.265Z,70.44
2019-03-10T14:30:14.379Z,69.50
2019-03-10T14:32:40.968Z,69.91
2019-03-10T14:35:09.674Z,68.46
2019-03-10T14:37:36.398Z,69.24
2019-03-10T14:40:06.426Z,69.42
2019-03-10T14:42:32.952Z,70.42
2019-03-10T14:44:59.409Z,69.75
2019-03-10T14:47:25.935Z,69.28
2019-03-10T14:49:52.565Z,70.51
2019-03-10T14:52:22.780Z,70.21
2019-03-10T14:54:49.420Z,70.02
2019-03-10T14:57:16.055Z,69.10
2019-03-10T14:59:42.592Z,69.90
2019-03-10T15:02:09.440Z,71.02
2019-03-10T15:04:36.179Z,70.96
2019-03-10T15:07:03.322Z,74.17
2019-03-10T15:09:30.170Z,82.61
2019-03-10T15:11:56.704Z,85.91
2019-03-10T15:14:23.243Z,85.39
2019-03-10T15:16:51.558Z,84.96
2019-03-10T15:19:18.062Z,84.72
2019-03-10T15:21:44.694Z,82.47
2019-03-10T15:24:11.332Z,84.38
2019-03-10T15:26:45.801Z,83.08
2019-03-10T15:29:06.455Z,84.47
2019-03-10T15:31:33.093Z,84.27
2019-03-10T15:33:59.833Z,83.74
2019-03-10T15:36:28.219Z,83.52
2019-03-10T15:38:54.847Z,82.19
2019-03-10T15:41:21.395Z,80.75
2019-03-10T15:43:47.919Z,79.71
2019-03-10T15:46:14.458Z,78.81
2019-03-10T15:48:40.990Z,79.53
2019-03-10T15:51:07.428Z,78.30
2019-03-10T15:53:33.960Z,78.56
2019-03-10T15:56:00.602Z,78.96
2019-03-10T15:58:27.034Z,79.42
2019-03-10T16:00:53.569Z,79.26
2019-03-10T16:03:20.003Z,78.54
2019-03-10T16:05:46.641Z,75.29
2019-03-10T16:08:13.081Z,73.32
2019-03-10T16:10:39.818Z,74.59
2019-03-10T16:13:06.248Z,77.40
2019-03-10T16:15:32.792Z,81.84
2019-03-10T16:17:59.217Z,81.76
2019-03-10T16:20:25.961Z,79.42
2019-03-10T16:22:55.127Z,81.47
2019-03-10T16:25:21.094Z,83.42
2019-03-10T16:27:49.776Z,82.66
2019-03-10T16:30:25.518Z,83.05
2019-03-10T16:32:52.054Z,80.88
2019-03-10T16:35:18.695Z,82.20
2019-03-10T16:37:45.435Z,83.75
2019-03-10T16:40:16.273Z,83.24
2019-03-10T16:42:42.907Z,83.33
2019-03-10T16:45:14.855Z,82.56
2019-03-10T16:47:41.306Z,83.58
2019-03-10T16:50:10.726Z,79.98
2019-03-10T16:52:37.247Z,79.94
2019-03-10T16:55:06.610Z,82.27
2019-03-10T16:57:33.080Z,82.32
2019-03-10T16:59:59.514Z,81.39
2019-03-10T17:02:25.947Z,76.85
2019-03-10T17:04:52.484Z,79.73
2019-03-10T17:07:19.001Z,80.26
2019-03-10T17:09:45.555Z,80.38
2019-03-10T17:12:12.096Z,78.21
2019-03-10T17:14:38.937Z,76.36
2019-03-10T17:17:05.367Z,76.64
2019-03-10T17:19:31.801Z,77.04
2019-03-10T17:21:58.234Z,79.23
2019-03-10T17:24:25.078Z,76.23
2019-03-10T17:26:51.513Z,75.78
2019-03-10T17:29:17.945Z,77.01
2019-03-10T17:31:44.490Z,76.42
2019-03-10T17:34:11.126Z,76.91
2019-03-10T17:36:37.654Z,79.02
2019-03-10T17:39:05.217Z,80.97
2019-03-10T17:41:31.654Z,82.07
2019-03-10T17:43:58.300Z,82.18
2019-03-10T17:46:24.826Z,83.61
2019-03-10T17:48:51.361Z,83.57
2019-03-10T17:51:17.898Z,83.79
2019-03-10T17:53:44.331Z,83.33
2019-03-10T17:56:10.866Z,83.13
2019-03-10T17:58:37.458Z,82.62
2019-03-10T18:01:04.142Z,82.88
2019-03-10T18:03:30.682Z,84.06
2019-03-10T18:05:57.217Z,84.43
2019-03-10T18:08:23.853Z,82.43
2019-03-10T18:10:50.389Z,82.56
2019-03-10T18:13:17.131Z,79.52
2019-03-10T18:15:43.667Z,80.71
2019-03-10T18:18:10.205Z,79.40
2019-03-10T18:20:36.750Z,78.94
2019-03-10T18:23:03.601Z,81.38
2019-03-10T18:25:31.998Z,81.13
2019-03-10T18:27:58.494Z,79.77
2019-03-10T18:30:26.021Z,76.86
2019-03-10T18:32:52.899Z,79.74
2019-03-10T18:35:19.437Z,80.98
2019-03-10T18:37:45.969Z,81.81
2019-03-10T18:40:21.926Z,79.65
2019-03-10T18:42:48.464Z,77.64
2019-03-10T18:45:17.804Z,76.97
2019-03-10T18:47:44.606Z,74.78
2019-03-10T18:50:13.600Z,77.32
2019-03-10T18:52:40.135Z,72.86
2019-03-10T18:55:09.189Z,73.74
2019-03-10T18:57:35.665Z,72.32
2019-03-10T19:00:04.663Z,74.23
2019-03-10T19:02:31.086Z,76.05
2019-03-10T19:04:57.629Z,75.80
2019-03-10T19:07:24.471Z,76.71
2019-03-10T19:09:51.110Z,77.56
2019-03-10T19:12:17.653Z,77.09
2019-03-10T19:14:44.306Z,73.85
2019-03-10T19:17:10.831Z,73.57
2019-03-10T19:19:37.368Z,70.82
2019-03-10T19:22:03.900Z,72.08
2019-03-10T19:24:30.449Z,72.28
2019-03-10T19:26:56.971Z,69.95
2019-03-10T19:29:23.501Z,72.28
2019-03-10T19:31:50.038Z,69.38
2019-03-10T19:34:16.573Z,66.62
2019-03-10T19:36:43.118Z,66.96
2019-03-10T19:39:09.748Z,66.96
2019-03-10T19:41:36.284Z,66.34
2019-03-10T19:44:02.925Z,66.34
2019-03-10T19:46:29.404Z,67.49
2019-03-10T19:48:55.893Z,68.92
2019-03-10T19:51:22.327Z,67.70
2019-03-10T19:53:48.866Z,68.21
2019-03-10T19:56:15.401Z,68.41
2019-03-10T19:58:41.966Z,68.41
2019-03-10T20:01:08.981Z,67.52
2019-03-10T20:03:35.515Z,67.98
2019-03-10T20:06:02.055Z,68.69
2019-03-10T20:08:28.691Z,68.45
2019-03-10T20:10:55.446Z,67.60
2019-03-10T20:13:23.707Z,70.34
2019-03-10T20:15:52.577Z,70.88
2019-03-10T20:18:18.725Z,72.17
2019-03-10T20:20:45.263Z,73.93
2019-03-10T20:23:11.900Z,74.31
2019-03-10T20:25:38.436Z,75.62
2019-03-10T20:28:05.031Z,74.69
2019-03-10T20:30:31.627Z,78.70
2019-03-10T20:32:58.179Z,76.46
2019-03-10T20:35:25.821Z,76.33
2019-03-10T20:37:52.344Z,75.67
2019-03-10T20:40:21.617Z,76.63
2019-03-10T20:42:48.184Z,75.68
2019-03-10T20:45:14.926Z,75.53
2019-03-10T20:47:42.788Z,76.22
2019-03-10T20:50:16.692Z,76.78
2019-03-10T20:52:43.135Z,76.78
2019-03-10T20:55:10.831Z,75.47
2019-03-10T20:57:37.351Z,75.84
2019-03-10T21:00:21.322Z,75.80
2019-03-10T21:02:48.017Z,75.04
2019-03-10T21:05:15.793Z,75.04
2019-03-10T21:07:42.314Z,74.23
2019-03-10T21:10:16.942Z,75.76
2019-03-10T21:12:43.580Z,76.98
2019-03-10T21:15:13.085Z,76.23
2019-03-10T21:17:39.723Z,75.15
2019-03-10T21:20:11.569Z,74.64
2019-03-10T21:22:38.124Z,74.08
2019-03-10T21:25:10.551Z,74.90
2019-03-10T21:27:38.454Z,74.77
2019-03-10T21:30:08.789Z,75.22
2019-03-10T21:32:35.323Z,75.22
2019-03-10T21:35:02.064Z,73.32
2019-03-10T21:37:28.599Z,74.16
2019-03-10T21:39:55.184Z,75.30
2019-03-10T21:42:21.672Z,69.67
2019-03-10T21:44:48.619Z,70.98
2019-03-10T21:47:15.153Z,72.36
2019-03-10T21:49:41.587Z,72.23
2019-03-10T21:52:08.030Z,71.29
2019-03-10T21:54:34.659Z,71.12
2019-03-10T21:57:01.149Z,71.53
2019-03-10T21:59:27.629Z,71.07
2019-03-10T22:01:54.064Z,70.55
2019-03-10T22:04:20.568Z,70.75
2019-03-10T22:06:47.349Z,71.28
2019-03-10T22:09:13.980Z,70.59
2019-03-10T22:11:40.874Z,68.06
2019-03-10T22:14:07.458Z,68.06
2019-03-10T22:16:34.329Z,68.49
2019-03-10T22:19:00.840Z,67.89
2019-03-10T22:21:27.460Z,68.09
2019-03-10T22:23:59.173Z,69.23
2019-03-10T22:26:23.108Z,72.20
2019-03-10T22:28:51.516Z,72.11
2019-03-10T22:31:18.125Z,65.33
2019-03-10T22:33:44.560Z,68.56
2019-03-10T22:36:11.507Z,66.28
2019-03-10T22:38:37.942Z,67.86
2019-03-10T22:41:04.377Z,68.05
2019-03-10T22:43:30.814Z,68.07
2019-03-10T22:45:57.343Z,71.19
2019-03-10T22:48:23.775Z,70.25
2019-03-10T22:50:50.207Z,69.89
2019-03-10T22:53:16.950Z,69.50
2019-03-10T22:55:43.692Z,70.46
2019-03-10T22:58:10.129Z,71.47
2019-03-10T23:00:53.352Z,72.40
2019-03-10T23:03:19.886Z,72.32
2019-03-10T23:05:46.423Z,72.85
2019-03-10T23:08:12.960Z,74.12
2019-03-10T23:10:39.493Z,73.66
2019-03-10T23:13:06.133Z,73.94
2019-03-10T23:15:32.668Z,73.90
2019-03-10T23:18:00.638Z,73.64
2019-03-10T23:20:27.071Z,73.92
2019-03-10T23:22:53.505Z,75.10
2019-03-10T23:25:20.041Z,73.79
2019-03-10T23:27:46.576Z,74.17
2019-03-10T23:30:17.165Z,75.00
2019-03-10T23:32:43.715Z,75.41
2019-03-10T23:35:10.387Z,75.87
2019-03-10T23:37:36.918Z,75.51
2019-03-10T23:40:07.038Z,75.02
2019-03-10T23:42:33.779Z,75.02
2019-03-10T23:45:00.318Z,74.22
2019-03-10T23:47:26.749Z,72.53
2019-03-10T23:49:53.183Z,71.46
2019-03-10T23:52:19.618Z,66.60
2019-03-10T23:54:46.152Z,71.40
2019-03-10T23:57:12.590Z,71.59
2019-03-10T23:59:39.020Z,72.52
